Time;durP1;ratioP1;P1;durP2;ratioP2;P2;SDS_P1;SDS_P2;PMS_P1;PMS_P2;Temp;Humidity;BMP_temperature;BMP_pressure;BME280_temperature;BME280_humidity;BME280_pressure;Samples;Min_cycle;Max_cycle;Signal;HPM_P1;HPM_P2
2021/08/17 00:01:08;;;;;;;2.42;1.60;;;18.30;99.90;;;;;;4985671;28;20360;-77
2021/08/17 00:03:35;;;;;;;3.60;1.80;;;18.30;99.90;;;;;;4988895;28;20568;-77
2021/08/17 00:06:03;;;;;;;8.48;2.33;;;18.30;99.90;;;;;;4986641;28;20197;-77
2021/08/17 00:08:30;;;;;;;3.00;1.38;;;18.30;99.90;;;;;;4987181;28;20213;-77
2021/08/17 00:10:59;;;;;;;3.38;2.50;;;18.30;99.90;;;;;;4986575;28;20189;-77
2021/08/17 00:13:26;;;;;;;6.68;2.10;;;18.40;99.90;;;;;;4988610;28;20193;-76
2021/08/17 00:15:53;;;;;;;3.15;1.50;;;16.80;99.90;;;;;;4987071;28;20293;-76
2021/08/17 00:18:19;;;;;;;2.42;1.70;;;18.20;99.90;;;;;;4986541;28;20202;-76
2021/08/17 00:20:46;;;;;;;5.03;2.88;;;18.20;99.90;;;;;;4987370;28;20202;-76
2021/08/17 00:23:13;;;;;;;2.70;1.23;;;18.20;99.90;;;;;;4986450;28;20229;-76
2021/08/17 00:25:42;;;;;;;3.88;1.90;;;18.20;99.90;;;;;;4987907;28;20685;-77
2021/08/17 00:28:10;;;;;;;4.05;1.38;;;18.20;99.90;;;;;;4986711;28;20221;-77
2021/08/17 00:30:37;;;;;;;2.13;1.35;;;18.20;99.90;;;;;;4985895;28;20204;-76
2021/08/17 00:33:04;;;;;;;3.63;1.77;;;18.30;99.90;;;;;;4986828;28;20201;-76
2021/08/17 00:35:31;;;;;;;6.70;1.92;;;18.20;99.90;;;;;;4987146;28;20237;-76
2021/08/17 00:37:58;;;;;;;4.20;1.42;;;18.30;99.90;;;;;;4986330;28;20574;-76
2021/08/17 00:40:25;;;;;;;4.25;1.83;;;18.20;99.90;;;;;;4989203;28;20194;-77
2021/08/17 00:42:51;;;;;;;6.28;2.88;;;18.20;99.90;;;;;;4987856;28;20201;-76
2021/08/17 00:45:22;;;;;;;3.90;1.40;;;18.50;99.90;;;;;;4998445;28;20535;-77
2021/08/17 00:47:48;;;;;;;5.32;1.30;;;17.90;99.90;;;;;;4982449;28;20228;-76
2021/08/17 00:50:15;;;;;;;3.63;1.50;;;18.50;99.90;;;;;;4988209;28;20210;-76
2021/08/17 00:52:43;;;;;;;3.50;1.40;;;18.10;99.90;;;;;;4989666;28;20409;-76
2021/08/17 00:55:11;;;;;;;2.63;1.52;;;18.10;99.90;;;;;;4999877;28;20208;-76
2021/08/17 00:57:40;;;;;;;4.18;1.70;;;18.10;99.90;;;;;;4991307;28;20290;-76
2021/08/17 01:00:08;;;;;;;3.10;1.67;;;18.10;99.90;;;;;;4989432;28;20205;-76
2021/08/17 01:02:36;;;;;;;5.95;1.70;;;18.10;99.90;;;;;;4989392;28;20212;-76
2021/08/17 01:05:04;;;;;;;1.90;1.70;;;18.10;99.90;;;;;;4989219;28;20201;-77
2021/08/17 01:07:31;;;;;;;2.85;1.83;;;18.10;99.90;;;;;;4986467;28;20190;-77
2021/08/17 01:09:57;;;;;;;4.13;2.20;;;18.00;99.90;;;;;;4984710;28;20236;-77
2021/08/17 01:12:24;;;;;;;3.08;1.83;;;18.10;99.90;;;;;;4987312;28;20209;-76
2021/08/17 01:14:51;;;;;;;4.03;1.40;;;18.10;99.90;;;;;;4986686;28;20375;-77
2021/08/17 01:17:18;;;;;;;3.63;2.00;;;18.10;99.90;;;;;;4986484;28;20555;-77
2021/08/17 01:19:47;;;;;;;3.17;1.55;;;18.00;99.90;;;;;;4988609;28;20613;-77
2021/08/17 01:22:14;;;;;;;4.00;1.48;;;18.00;99.90;;;;;;4988588;28;20193;-77
2021/08/17 01:24:40;;;;;;;2.53;1.70;;;18.00;99.90;;;;;;4987879;28;20217;-77
2021/08/17 01:27:10;;;;;;;2.80;1.55;;;18.00;99.90;;;;;;4988109;28;20197;-77
2021/08/17 01:29:37;;;;;;;2.47;1.40;;;17.90;99.90;;;;;;4988930;28;20221;-77
2021/08/17 01:32:04;;;;;;;2.65;1.55;;;17.70;99.90;;;;;;4986930;28;20220;-76
2021/08/17 01:34:31;;;;;;;6.15;1.77;;;18.00;99.90;;;;;;4974997;28;20194;-76
2021/08/17 01:36:57;;;;;;;3.72;1.60;;;18.00;99.90;;;;;;4990531;28;20205;-77
2021/08/17 01:39:24;;;;;;;2.28;1.55;;;18.00;99.90;;;;;;4989045;28;20573;-76
2021/08/17 01:41:51;;;;;;;3.08;2.30;;;18.00;99.90;;;;;;4987116;28;20197;-77
2021/08/17 01:44:19;;;;;;;3.78;1.83;;;17.90;99.90;;;;;;4989286;28;20290;-76
2021/08/17 01:46:47;;;;;;;3.90;1.83;;;17.70;99.90;;;;;;4984096;28;20216;-77
2021/08/17 01:49:15;;;;;;;4.03;1.80;;;18.00;99.90;;;;;;4987345;28;20760;-77
2021/08/17 01:51:42;;;;;;;3.53;2.17;;;17.90;99.90;;;;;;4991166;28;20193;-76
2021/08/17 01:54:08;;;;;;;4.40;2.03;;;17.90;99.90;;;;;;4990111;28;20555;-76
2021/08/17 01:56:35;;;;;;;4.32;2.03;;;18.00;99.90;;;;;;4991526;28;20189;-75
2021/08/17 01:59:03;;;;;;;3.92;1.60;;;18.00;99.90;;;;;;4988546;28;20212;-75
2021/08/17 02:01:31;;;;;;;4.97;1.75;;;17.90;99.90;;;;;;4986566;28;20198;-77
2021/08/17 02:03:58;;;;;;;4.13;1.80;;;17.90;99.90;;;;;;4987478;28;20403;-76
2021/08/17 02:06:25;;;;;;;3.88;2.17;;;17.90;99.90;;;;;;4986279;28;20193;-76
2021/08/17 02:08:52;;;;;;;4.35;1.90;;;17.90;99.90;;;;;;4984881;28;20482;-76
2021/08/17 02:11:18;;;;;;;3.63;1.70;;;17.90;99.90;;;;;;4987914;28;20462;-76
2021/08/17 02:13:45;;;;;;;3.42;1.63;;;17.90;99.90;;;;;;4987714;28;20636;-76
2021/08/17 02:16:12;;;;;;;5.22;1.85;;;17.90;99.90;;;;;;4987584;28;20205;-76
2021/08/17 02:18:40;;;;;;;3.63;1.80;;;17.90;99.90;;;;;;4984807;28;20204;-76
2021/08/17 02:21:07;;;;;;;2.70;1.60;;;17.90;99.90;;;;;;4988155;28;20220;-76
2021/08/17 02:23:33;;;;;;;7.72;2.30;;;17.90;99.90;;;;;;4986867;28;20286;-76
2021/08/17 02:26:00;;;;;;;3.28;1.65;;;17.80;99.90;;;;;;4987054;28;20220;-75
2021/08/17 02:28:27;;;;;;;5.60;2.47;;;17.90;99.90;;;;;;4987991;28;20228;-77
2021/08/17 02:30:54;;;;;;;3.55;1.88;;;17.90;99.90;;;;;;4988980;28;20979;-76
2021/08/17 02:33:21;;;;;;;3.28;1.80;;;17.80;99.90;;;;;;4987065;28;20190;-77
2021/08/17 02:35:49;;;;;;;2.72;1.70;;;17.80;99.90;;;;;;4984394;28;20201;-76
2021/08/17 02:38:16;;;;;;;4.80;2.75;;;17.90;99.90;;;;;;4986801;28;20190;-76
2021/08/17 02:40:43;;;;;;;3.50;1.58;;;17.80;99.90;;;;;;4988497;28;20280;-76
2021/08/17 02:43:10;;;;;;;4.43;2.33;;;18.00;99.90;;;;;;4984947;28;20216;-75
2021/08/17 02:45:37;;;;;;;3.85;2.30;;;17.80;99.90;;;;;;4989642;28;20392;-76
2021/08/17 02:48:04;;;;;;;3.55;1.95;;;17.80;99.90;;;;;;4980408;28;20212;-76
2021/08/17 02:50:31;;;;;;;6.07;2.25;;;17.90;99.90;;;;;;4989846;28;20225;-76
2021/08/17 02:52:59;;;;;;;6.72;1.88;;;17.80;99.90;;;;;;4988843;28;20193;-77
2021/08/17 02:55:26;;;;;;;2.17;1.60;;;17.80;99.90;;;;;;4991570;28;20201;-77
2021/08/17 02:57:55;;;;;;;5.13;1.80;;;17.80;99.90;;;;;;4988202;28;20224;-76
2021/08/17 03:00:22;;;;;;;2.58;2.03;;;17.80;99.90;;;;;;4979106;28;20670;-76
2021/08/17 03:02:49;;;;;;;3.25;1.60;;;17.70;99.90;;;;;;4989535;28;20198;-76
2021/08/17 03:05:16;;;;;;;4.93;1.98;;;17.80;99.90;;;;;;4989693;28;20189;-75
2021/08/17 03:07:53;;;;;;;7.10;1.73;;;17.70;99.90;;;;;;4982095;28;20567;-76
2021/08/17 03:10:22;;;;;;;2.92;2.08;;;18.00;99.90;;;;;;4983653;28;20213;-76
2021/08/17 03:12:49;;;;;;;2.70;1.88;;;17.80;99.90;;;;;;4983352;28;20868;-76
2021/08/17 03:15:17;;;;;;;5.45;2.38;;;17.80;99.90;;;;;;4982635;28;20202;-76
2021/08/17 03:17:43;;;;;;;3.83;1.92;;;18.00;99.90;;;;;;4982755;28;20209;-76
2021/08/17 03:20:12;;;;;;;5.63;2.53;;;17.70;99.90;;;;;;4986682;28;20198;-76
2021/08/17 03:22:40;;;;;;;5.13;2.17;;;17.70;99.90;;;;;;4986817;28;20216;-76
2021/08/17 03:25:08;;;;;;;3.30;1.92;;;17.70;99.90;;;;;;4986704;28;20559;-76
2021/08/17 03:27:37;;;;;;;6.15;2.20;;;17.70;99.90;;;;;;4986317;28;20198;-76
2021/08/17 03:30:05;;;;;;;7.30;2.40;;;17.70;99.90;;;;;;4984486;28;20209;-76
2021/08/17 03:32:32;;;;;;;4.63;2.30;;;17.70;99.90;;;;;;4985559;28;20585;-76
2021/08/17 03:34:59;;;;;;;2.50;1.80;;;17.70;99.90;;;;;;4986974;28;20197;-75
2021/08/17 03:37:26;;;;;;;7.43;2.17;;;17.50;99.90;;;;;;4986036;28;20673;-75
2021/08/17 03:39:53;;;;;;;4.68;2.67;;;17.70;99.90;;;;;;4986630;28;20209;-76
2021/08/17 03:42:19;;;;;;;2.13;1.83;;;17.60;99.90;;;;;;4983717;28;20714;-75
2021/08/17 03:44:47;;;;;;;7.13;1.83;;;17.60;99.90;;;;;;4983852;28;20200;-75
2021/08/17 03:47:14;;;;;;;4.60;2.35;;;17.70;99.90;;;;;;4983089;28;20208;-76
2021/08/17 03:49:41;;;;;;;4.68;2.05;;;17.60;99.90;;;;;;4986207;28;20217;-76
2021/08/17 03:52:08;;;;;;;4.88;2.67;;;17.70;99.90;;;;;;4983565;28;20202;-76
2021/08/17 03:54:34;;;;;;;7.35;2.50;;;17.60;99.90;;;;;;4988065;28;20210;-77
2021/08/17 03:57:01;;;;;;;2.42;1.70;;;17.60;99.90;;;;;;4985935;28;20205;-76
2021/08/17 03:59:28;;;;;;;4.50;2.10;;;17.60;99.90;;;;;;4986685;28;20242;-76
2021/08/17 04:01:56;;;;;;;4.35;2.47;;;17.60;99.90;;;;;;4985343;28;20689;-76
2021/08/17 04:04:22;;;;;;;3.72;2.47;;;17.60;99.90;;;;;;4985475;28;20204;-76
2021/08/17 04:06:49;;;;;;;4.50;2.55;;;17.50;99.90;;;;;;4984362;28;20406;-76
2021/08/17 04:09:16;;;;;;;6.25;2.58;;;17.50;99.90;;;;;;4985807;28;20217;-76
2021/08/17 04:11:42;;;;;;;3.92;2.42;;;17.50;99.90;;;;;;4984704;28;20198;-75
2021/08/17 04:14:09;;;;;;;3.65;2.13;;;17.30;99.90;;;;;;4986150;28;20193;-75
2021/08/17 04:16:36;;;;;;;3.25;2.25;;;17.50;99.90;;;;;;4984847;28;20661;-76
2021/08/17 04:19:04;;;;;;;6.10;2.67;;;17.50;99.90;;;;;;4989813;28;20207;-76
2021/08/17 04:21:31;;;;;;;4.78;2.88;;;17.50;99.90;;;;;;4987654;28;20209;-77
2021/08/17 04:23:59;;;;;;;5.03;3.30;;;17.50;99.90;;;;;;4985536;28;20201;-76
2021/08/17 04:26:26;;;;;;;7.05;3.22;;;17.50;99.90;;;;;;4985467;28;20221;-76
2021/08/17 04:28:52;;;;;;;2.97;2.35;;;17.60;99.90;;;;;;4986026;28;20625;-76
2021/08/17 04:31:19;;;;;;;4.35;3.00;;;17.50;99.90;;;;;;4985251;28;20675;-76
2021/08/17 04:33:46;;;;;;;6.25;3.33;;;17.40;99.90;;;;;;4988167;28;20201;-76
2021/08/17 04:36:14;;;;;;;5.80;3.40;;;17.50;99.90;;;;;;4987789;28;20462;-76
2021/08/17 04:38:41;;;;;;;10.55;4.35;;;17.30;99.90;;;;;;4989832;28;20646;-76
2021/08/17 04:41:08;;;;;;;6.50;3.30;;;17.50;99.90;;;;;;4990645;28;20205;-78
2021/08/17 04:43:35;;;;;;;5.10;3.55;;;17.50;99.90;;;;;;4990242;28;20198;-77
2021/08/17 04:46:01;;;;;;;7.07;4.85;;;17.50;99.90;;;;;;4988566;28;20689;-77
2021/08/17 04:48:28;;;;;;;6.72;4.13;;;17.60;99.90;;;;;;4986557;28;20217;-76
2021/08/17 04:50:55;;;;;;;8.75;3.65;;;17.50;99.90;;;;;;4990302;28;20689;-77
2021/08/17 04:53:23;;;;;;;5.10;3.70;;;17.40;99.90;;;;;;4987998;28;20200;-77
2021/08/17 04:55:50;;;;;;;6.05;3.95;;;17.40;99.90;;;;;;4978098;28;20288;-77
2021/08/17 04:58:16;;;;;;;6.15;4.15;;;17.40;99.90;;;;;;4995777;28;20200;-78
2021/08/17 05:00:45;;;;;;;8.20;4.70;;;17.40;99.90;;;;;;4991825;28;20470;-77
2021/08/17 05:03:12;;;;;;;8.95;4.53;;;17.40;99.90;;;;;;4989383;28;20228;-77
2021/08/17 05:05:39;;;;;;;9.60;5.10;;;17.40;99.90;;;;;;4988530;28;20197;-77
2021/08/17 05:08:07;;;;;;;9.27;5.68;;;17.40;99.90;;;;;;4988577;28;20356;-77
2021/08/17 05:10:36;;;;;;;6.63;4.47;;;17.40;99.90;;;;;;4991708;28;20646;-76
2021/08/17 05:13:03;;;;;;;7.15;4.50;;;17.40;99.90;;;;;;4984925;28;20195;-76
2021/08/17 05:15:30;;;;;;;6.07;4.20;;;17.40;99.90;;;;;;4986456;28;20734;-76
2021/08/17 05:17:57;;;;;;;6.30;4.63;;;17.40;99.90;;;;;;4987201;28;20527;-77
2021/08/17 05:20:25;;;;;;;9.43;4.03;;;17.40;99.90;;;;;;4986958;28;20669;-76
2021/08/17 05:22:51;;;;;;;6.22;4.15;;;17.40;99.90;;;;;;4987350;28;20201;-76
2021/08/17 05:25:19;;;;;;;6.88;4.60;;;17.40;99.90;;;;;;4983781;28;20194;-75
2021/08/17 05:27:47;;;;;;;7.03;4.20;;;17.50;99.90;;;;;;4984693;28;20207;-75
2021/08/17 05:30:15;;;;;;;9.85;4.63;;;17.50;99.90;;;;;;4983406;28;20225;-74
2021/08/17 05:32:42;;;;;;;8.77;5.82;;;17.40;99.90;;;;;;4983947;28;20197;-76
2021/08/17 05:35:09;;;;;;;7.47;5.13;;;17.40;99.90;;;;;;4984463;28;20199;-76
2021/08/17 05:37:37;;;;;;;11.95;5.80;;;17.50;99.90;;;;;;4984285;28;20197;-76
2021/08/17 05:40:05;;;;;;;9.02;5.40;;;17.50;99.90;;;;;;4986068;28;20204;-75
2021/08/17 05:42:32;;;;;;;14.07;6.25;;;17.50;99.90;;;;;;4990084;28;20574;-75
2021/08/17 05:45:00;;;;;;;10.35;6.25;;;17.60;99.90;;;;;;4988199;28;20654;-75
2021/08/17 05:47:27;;;;;;;10.75;6.10;;;17.80;99.90;;;;;;4989636;28;20201;-75
2021/08/17 05:49:54;;;;;;;11.88;6.07;;;18.00;99.90;;;;;;4991543;28;20236;-75
2021/08/17 05:52:20;;;;;;;13.13;6.93;;;18.20;99.90;;;;;;4988914;28;20201;-75
2021/08/17 05:54:47;;;;;;;12.02;7.07;;;18.30;99.90;;;;;;4990461;28;20205;-76
2021/08/17 05:57:14;;;;;;;10.27;5.05;;;18.40;99.90;;;;;;4990606;28;20205;-76
2021/08/17 05:59:40;;;;;;;11.50;4.97;;;18.40;99.90;;;;;;4989400;28;20216;-76
2021/08/17 06:02:09;;;;;;;11.35;8.00;;;18.50;99.90;;;;;;4986696;28;20189;-76
2021/08/17 06:04:36;;;;;;;9.63;5.30;;;18.50;99.90;;;;;;4989652;28;20205;-76
2021/08/17 06:07:03;;;;;;;8.77;6.00;;;18.50;99.90;;;;;;4990283;28;20205;-76
2021/08/17 06:09:29;;;;;;;11.40;7.20;;;18.60;99.90;;;;;;4988904;28;20205;-76
2021/08/17 06:11:57;;;;;;;8.90;6.10;;;18.60;99.90;;;;;;4989552;28;20230;-76
2021/08/17 06:14:25;;;;;;;10.93;6.38;;;18.50;99.90;;;;;;4987646;28;20859;-76
2021/08/17 06:16:52;;;;;;;10.30;7.05;;;18.40;99.90;;;;;;4993554;28;20194;-76
2021/08/17 06:19:20;;;;;;;11.65;7.28;;;18.30;99.90;;;;;;4989872;28;20386;-76
2021/08/17 06:21:47;;;;;;;7.82;5.88;;;18.30;99.90;;;;;;4990010;28;20200;-76
2021/08/17 06:24:14;;;;;;;12.60;6.72;;;18.30;99.90;;;;;;4994498;28;20201;-75
2021/08/17 06:26:41;;;;;;;9.52;6.20;;;18.30;99.90;;;;;;4989758;28;20610;-76
2021/08/17 06:29:07;;;;;;;11.60;6.65;;;18.30;99.90;;;;;;4987391;28;20197;-76
2021/08/17 06:31:34;;;;;;;9.57;5.72;;;18.30;99.90;;;;;;4987586;28;20244;-76
2021/08/17 06:34:01;;;;;;;12.95;7.47;;;18.40;99.90;;;;;;4984810;28;20193;-75
2021/08/17 06:36:30;;;;;;;9.75;7.00;;;18.60;99.90;;;;;;4987194;28;20617;-75
2021/08/17 06:38:57;;;;;;;7.53;5.30;;;18.50;99.90;;;;;;4989115;28;20634;-76
2021/08/17 06:41:24;;;;;;;11.25;6.22;;;18.80;99.90;;;;;;4987180;28;20197;-79
2021/08/17 06:43:51;;;;;;;8.88;5.38;;;18.90;99.90;;;;;;4988966;28;20197;-79
2021/08/17 06:46:18;;;;;;;9.38;6.47;;;19.00;99.90;;;;;;4988928;28;20232;-77
2021/08/17 06:48:44;;;;;;;8.90;6.55;;;19.00;99.90;;;;;;4988698;28;20202;-80
2021/08/17 06:51:11;;;;;;;11.90;7.00;;;18.80;99.90;;;;;;4990881;28;20228;-77
2021/08/17 06:53:40;;;;;;;7.03;4.90;;;19.00;99.90;;;;;;4985297;28;20677;-77
2021/08/17 06:56:07;;;;;;;11.68;6.53;;;18.90;99.90;;;;;;4985847;28;20580;-78
2021/08/17 06:58:34;;;;;;;10.65;7.70;;;18.90;99.90;;;;;;4991121;28;20212;-79
2021/08/17 07:01:02;;;;;;;8.07;5.88;;;18.90;99.90;;;;;;4991578;28;20201;-79
2021/08/17 07:03:29;;;;;;;7.78;5.63;;;18.90;99.90;;;;;;4990150;28;20208;-74
2021/08/17 07:05:55;;;;;;;9.52;7.18;;;19.20;99.90;;;;;;4990013;28;20205;-74
2021/08/17 07:08:22;;;;;;;9.50;7.47;;;18.90;99.90;;;;;;4984839;28;20203;-74
2021/08/17 07:10:51;;;;;;;10.60;6.22;;;18.90;99.90;;;;;;4990175;28;20240;-74
2021/08/17 07:13:18;;;;;;;11.85;7.05;;;18.90;99.90;;;;;;4989126;28;20189;-74
2021/08/17 07:15:45;;;;;;;9.90;6.93;;;18.90;99.90;;;;;;4990437;28;20205;-74
2021/08/17 07:18:11;;;;;;;10.55;6.00;;;18.90;99.90;;;;;;4989310;28;20209;-74
2021/08/17 07:20:40;;;;;;;8.70;6.22;;;18.90;99.90;;;;;;4988677;28;20202;-74
2021/08/17 07:23:06;;;;;;;12.73;6.80;;;18.80;99.90;;;;;;4989218;28;20208;-74
2021/08/17 07:25:34;;;;;;;10.07;5.78;;;18.90;99.90;;;;;;4987619;28;20567;-74
2021/08/17 07:28:02;;;;;;;8.95;6.18;;;18.90;99.90;;;;;;4988500;28;20674;-74
2021/08/17 07:30:29;;;;;;;11.10;7.43;;;18.80;99.90;;;;;;4987559;28;20229;-74
2021/08/17 07:32:56;;;;;;;10.60;6.85;;;18.80;99.90;;;;;;4988192;28;20574;-74
2021/08/17 07:35:22;;;;;;;8.38;6.10;;;18.50;99.90;;;;;;4989262;28;20200;-74
2021/08/17 07:37:49;;;;;;;12.10;6.45;;;18.80;99.90;;;;;;4992312;28;20204;-74
2021/08/17 07:40:18;;;;;;;10.32;7.38;;;18.70;99.90;;;;;;4991906;28;20674;-74
2021/08/17 07:42:45;;;;;;;14.00;7.35;;;18.80;99.90;;;;;;4987036;28;20200;-75
2021/08/17 07:45:15;;;;;;;9.80;6.03;;;18.90;99.90;;;;;;4988484;28;20681;-75
2021/08/17 07:47:42;;;;;;;10.23;7.38;;;18.80;99.90;;;;;;4981315;28;20232;-74
2021/08/17 07:50:10;;;;;;;10.95;6.90;;;18.80;99.90;;;;;;4980927;28;20225;-75
2021/08/17 07:52:38;;;;;;;10.98;7.68;;;18.80;99.90;;;;;;4978723;28;20193;-74
2021/08/17 07:55:06;;;;;;;16.08;10.10;;;18.80;99.90;;;;;;4978783;28;20202;-74
2021/08/17 07:57:32;;;;;;;14.15;7.28;;;18.90;99.90;;;;;;4979182;28;20212;-74
2021/08/17 07:59:59;;;;;;;12.05;9.50;;;18.90;99.90;;;;;;4977788;28;20198;-74
2021/08/17 08:02:27;;;;;;;8.60;6.72;;;18.70;99.90;;;;;;4983951;28;20674;-74
2021/08/17 08:04:54;;;;;;;11.68;7.00;;;19.00;99.90;;;;;;4989853;28;20197;-80
2021/08/17 08:07:21;;;;;;;13.98;8.02;;;19.00;99.90;;;;;;4991054;28;20208;-78
2021/08/17 08:09:47;;;;;;;16.50;8.80;;;18.80;99.90;;;;;;4988023;28;20204;-77
2021/08/17 08:12:14;;;;;;;10.88;7.95;;;19.30;99.90;;;;;;4991246;28;20248;-77
2021/08/17 08:14:41;;;;;;;12.38;7.93;;;18.90;99.90;;;;;;4990630;28;20200;-77
2021/08/17 08:17:08;;;;;;;12.35;8.18;;;18.90;99.90;;;;;;4989441;28;20235;-77
2021/08/17 08:19:36;;;;;;;13.20;8.35;;;18.90;99.90;;;;;;4990400;28;20580;-77
2021/08/17 08:22:04;;;;;;;12.90;9.10;;;18.90;99.90;;;;;;4990344;28;20403;-78
2021/08/17 08:24:30;;;;;;;10.88;8.35;;;18.90;99.90;;;;;;4990087;28;20776;-78
2021/08/17 08:26:57;;;;;;;14.05;8.77;;;18.80;99.90;;;;;;4989459;28;20209;-78
2021/08/17 08:29:24;;;;;;;14.35;8.95;;;18.90;99.90;;;;;;4990454;28;20190;-78
2021/08/17 08:31:51;;;;;;;12.77;8.02;;;18.80;99.90;;;;;;4990460;28;20712;-78
2021/08/17 08:34:18;;;;;;;17.25;8.55;;;18.80;99.90;;;;;;4990015;28;20194;-78
2021/08/17 08:36:46;;;;;;;11.75;8.93;;;19.00;99.90;;;;;;4990016;28;20212;-79
2021/08/17 08:39:12;;;;;;;12.13;8.25;;;19.00;99.90;;;;;;4990818;28;20213;-79
2021/08/17 08:41:40;;;;;;;15.95;9.55;;;18.80;99.90;;;;;;4990588;28;20205;-79
2021/08/17 08:44:06;;;;;;;11.10;8.82;;;19.10;99.90;;;;;;4991001;28;20247;-79
2021/08/17 08:46:35;;;;;;;13.32;9.00;;;19.50;99.90;;;;;;4990916;28;20689;-79
2021/08/17 08:49:04;;;;;;;13.40;9.65;;;19.40;99.90;;;;;;4987129;28;20562;-79
2021/08/17 08:51:31;;;;;;;13.43;10.10;;;19.30;99.90;;;;;;4989940;28;20223;-79
2021/08/17 08:54:01;;;;;;;13.55;11.27;;;19.30;99.90;;;;;;5003259;28;20201;-79
2021/08/17 08:56:29;;;;;;;16.05;10.00;;;19.20;99.90;;;;;;4980059;28;20206;-79
2021/08/17 08:58:55;;;;;;;14.35;10.20;;;19.20;99.90;;;;;;4978018;28;20204;-79
2021/08/17 09:01:23;;;;;;;17.17;10.48;;;19.10;99.90;;;;;;4990750;28;20225;-79
2021/08/17 09:03:53;;;;;;;11.73;10.02;;;19.20;99.90;;;;;;4989942;28;20198;-79
2021/08/17 09:06:22;;;;;;;15.98;12.00;;;19.10;99.90;;;;;;4989758;28;20305;-79
2021/08/17 09:09:03;;;;;;;12.30;9.43;;;19.20;99.90;;;;;;4991724;28;20717;-80
2021/08/17 09:11:31;;;;;;;15.35;11.27;;;19.20;99.90;;;;;;4990942;28;20213;-79
2021/08/17 09:14:16;;;;;;;13.32;10.98;;;19.20;99.90;;;;;;4990055;28;20201;-79
2021/08/17 09:16:44;;;;;;;14.88;10.82;;;19.20;99.90;;;;;;4992981;28;20244;-79
2021/08/17 09:19:32;;;;;;;14.13;10.38;;;19.20;99.90;;;;;;4994485;28;20651;-78
2021/08/17 09:22:02;;;;;;;16.25;11.70;;;19.20;99.90;;;;;;4993466;28;20228;-79
2021/08/17 09:24:31;;;;;;;14.18;10.52;;;19.20;99.90;;;;;;5011059;28;20204;-79
2021/08/17 09:27:01;;;;;;;15.68;11.07;;;19.50;99.90;;;;;;4980965;28;20198;-79
2021/08/17 09:29:34;;;;;;;18.83;12.18;;;19.10;99.90;;;;;;4986822;28;20603;-79
2021/08/17 09:32:10;;;;;;;13.30;10.55;;;19.20;99.90;;;;;;4993228;28;20229;-79
2021/08/17 09:34:37;;;;;;;13.98;11.27;;;19.20;99.90;;;;;;4994359;28;20504;-79
2021/08/17 09:37:08;;;;;;;16.10;11.77;;;19.30;99.90;;;;;;4993034;28;20224;-79
2021/08/17 09:39:39;;;;;;;15.30;12.90;;;19.30;99.90;;;;;;4993459;28;20209;-79
2021/08/17 09:42:23;;;;;;;15.32;11.40;;;19.30;99.90;;;;;;4994093;28;20192;-79
2021/08/17 09:45:07;;;;;;;13.18;11.35;;;19.30;99.90;;;;;;4994363;28;20201;-79
2021/08/17 09:47:34;;;;;;;14.75;10.80;;;19.30;99.90;;;;;;4990038;28;20263;-79
2021/08/17 09:50:22;;;;;;;15.10;12.15;;;19.30;99.90;;;;;;4984426;28;20292;-79
2021/08/17 09:52:51;;;;;;;13.10;11.73;;;19.30;99.90;;;;;;5001365;28;20197;-79
2021/08/17 09:55:20;;;;;;;15.95;12.57;;;19.30;99.90;;;;;;4990696;28;20201;-80
2021/08/17 09:57:48;;;;;;;15.18;12.10;;;19.20;99.90;;;;;;4997394;28;20201;-79
2021/08/17 10:00:17;;;;;;;16.08;12.15;;;19.30;99.90;;;;;;4993830;28;20190;-76
2021/08/17 10:02:45;;;;;;;15.45;11.75;;;19.20;99.90;;;;;;4993493;28;20197;-74
2021/08/17 10:05:14;;;;;;;12.75;11.25;;;19.00;99.90;;;;;;4993192;28;20194;-75
2021/08/17 10:07:42;;;;;;;15.20;13.35;;;19.20;99.90;;;;;;4996193;28;20197;-75
2021/08/17 10:10:11;;;;;;;15.73;12.80;;;19.10;99.90;;;;;;5010062;28;20201;-75
2021/08/17 10:12:38;;;;;;;12.75;11.45;;;19.20;99.90;;;;;;4992501;28;20303;-75
2021/08/17 10:15:08;;;;;;;15.68;11.85;;;19.30;99.90;;;;;;4986094;28;20204;-75
2021/08/17 10:17:35;;;;;;;15.48;11.25;;;19.30;99.90;;;;;;4992030;28;20206;-75
2021/08/17 10:20:02;;;;;;;17.00;12.18;;;19.30;99.90;;;;;;4991833;28;20205;-75
2021/08/17 10:22:29;;;;;;;15.27;12.00;;;19.30;99.90;;;;;;4994298;28;20559;-76
2021/08/17 10:25:06;;;;;;;19.17;12.75;;;19.30;99.90;;;;;;5013946;28;20208;-75
2021/08/17 10:27:34;;;;;;;14.25;11.07;;;19.30;99.90;;;;;;4996126;28;20662;-76
2021/08/17 10:30:10;;;;;;;15.32;11.63;;;19.40;99.90;;;;;;4992967;28;20198;-75
2021/08/17 10:32:42;;;;;;;15.95;11.05;;;19.40;99.90;;;;;;4993512;28;20256;-76
2021/08/17 10:35:54;;;;;;;14.23;11.32;;;19.40;99.90;;;;;;4993524;28;20216;-75
2021/08/17 10:38:46;;;;;;;17.83;12.15;;;19.30;99.90;;;;;;4993264;28;20657;-75
2021/08/17 10:41:14;;;;;;;15.32;10.05;;;19.30;99.90;;;;;;4993217;28;20236;-74
2021/08/17 10:44:19;;;;;;;16.08;13.13;;;19.40;99.90;;;;;;4992890;28;20206;-74
2021/08/17 10:46:55;;;;;;;16.58;11.07;;;19.40;99.90;;;;;;4992621;28;20209;-74
2021/08/17 10:49:46;;;;;;;18.05;13.10;;;19.40;99.90;;;;;;4993399;28;20193;-74
2021/08/17 10:52:27;;;;;;;12.70;10.40;;;19.40;99.90;;;;;;4991065;28;20320;-75
2021/08/17 10:55:28;;;;;;;13.05;11.07;;;19.40;99.90;;;;;;4991170;28;20667;-74
2021/08/17 10:57:58;;;;;;;14.43;12.75;;;19.40;99.90;;;;;;4993381;28;20200;-74
2021/08/17 11:01:02;;;;;;;13.77;11.15;;;19.40;99.90;;;;;;4993028;28;20202;-75
2021/08/17 11:03:41;;;;;;;15.77;12.30;;;19.40;99.90;;;;;;4991742;28;20200;-76
2021/08/17 11:06:08;;;;;;;17.58;10.95;;;19.30;99.90;;;;;;4992757;28;20232;-75
2021/08/17 11:08:40;;;;;;;12.20;10.90;;;19.40;99.90;;;;;;4991913;28;20205;-74
2021/08/17 11:11:19;;;;;;;16.13;11.45;;;19.40;99.90;;;;;;4991661;28;20221;-74
2021/08/17 11:14:04;;;;;;;12.90;10.93;;;19.40;99.90;;;;;;4992752;28;20205;-74
2021/08/17 11:16:32;;;;;;;14.10;10.80;;;19.40;99.90;;;;;;4993175;28;20224;-75
2021/08/17 11:19:00;;;;;;;11.35;9.95;;;19.50;99.90;;;;;;4988012;28;20193;-75
2021/08/17 11:21:31;;;;;;;12.25;10.65;;;19.50;99.90;;;;;;4981470;28;20221;-74
2021/08/17 11:24:10;;;;;;;14.35;9.82;;;19.50;99.90;;;;;;4992024;28;20202;-74
2021/08/17 11:26:37;;;;;;;12.15;10.77;;;19.50;99.90;;;;;;4992397;28;20193;-75
2021/08/17 11:29:06;;;;;;;14.13;10.05;;;19.50;99.90;;;;;;4992400;28;20190;-75
2021/08/17 11:31:43;;;;;;;12.68;11.18;;;19.50;99.90;;;;;;4991392;28;20229;-75
2021/08/17 11:34:18;;;;;;;11.98;10.38;;;19.60;99.90;;;;;;4991126;28;20201;-74
2021/08/17 11:37:03;;;;;;;13.43;10.93;;;19.50;99.90;;;;;;4992459;28;20212;-76
2021/08/17 11:39:32;;;;;;;14.60;11.50;;;19.50;99.90;;;;;;5000375;28;20201;-75
2021/08/17 11:42:00;;;;;;;16.02;10.77;;;19.50;99.90;;;;;;4992664;28;20313;-75
2021/08/17 11:44:28;;;;;;;11.32;9.50;;;19.60;99.90;;;;;;4992060;28;20308;-74
2021/08/17 11:47:06;;;;;;;16.02;10.80;;;19.30;99.90;;;;;;4991838;28;20279;-74
2021/08/17 11:49:33;;;;;;;12.55;9.20;;;19.60;99.90;;;;;;4992792;28;20186;-75
2021/08/17 11:52:04;;;;;;;14.13;10.18;;;19.60;99.90;;;;;;4992488;28;20213;-74
2021/08/17 11:54:32;;;;;;;14.60;9.05;;;19.60;99.90;;;;;;4991462;28;20218;-75
2021/08/17 11:57:03;;;;;;;11.65;8.35;;;19.70;99.90;;;;;;4990152;28;20240;-75
2021/08/17 11:59:42;;;;;;;10.63;8.60;;;19.60;99.90;;;;;;4991557;28;20284;-74
2021/08/17 12:02:10;;;;;;;13.05;8.98;;;19.60;99.90;;;;;;4991786;28;20547;-75
2021/08/17 12:04:37;;;;;;;8.75;7.35;;;19.60;99.90;;;;;;4998004;28;20680;-75
2021/08/17 12:07:13;;;;;;;14.90;8.13;;;20.00;99.90;;;;;;4994039;28;20200;-75
2021/08/17 12:09:41;;;;;;;10.88;8.68;;;19.70;99.90;;;;;;4992030;28;20193;-75
2021/08/17 12:12:09;;;;;;;13.23;9.15;;;19.70;99.90;;;;;;4991184;28;20221;-76
2021/08/17 12:14:36;;;;;;;12.55;9.40;;;19.80;99.90;;;;;;4992593;28;20198;-76
2021/08/17 12:17:06;;;;;;;11.18;7.53;;;19.80;99.90;;;;;;4992338;28;20201;-77
2021/08/17 12:19:33;;;;;;;10.00;8.30;;;19.70;99.90;;;;;;4999724;28;20196;-76
2021/08/17 12:22:00;;;;;;;14.60;9.13;;;19.80;99.90;;;;;;4992235;28;20201;-76
2021/08/17 12:24:29;;;;;;;11.30;7.90;;;19.80;99.90;;;;;;4987415;28;20198;-75
2021/08/17 12:26:58;;;;;;;12.35;7.80;;;19.90;99.90;;;;;;4991530;28;20194;-75
2021/08/17 12:29:25;;;;;;;10.40;7.88;;;19.80;99.90;;;;;;4992079;28;20663;-76
2021/08/17 12:31:53;;;;;;;13.00;8.45;;;19.80;99.90;;;;;;4992001;28;20221;-77
2021/08/17 12:34:23;;;;;;;8.98;7.70;;;19.80;99.90;;;;;;4986825;28;20252;-76
2021/08/17 12:36:52;;;;;;;10.13;6.72;;;19.90;99.90;;;;;;4991449;28;20730;-76
2021/08/17 12:39:21;;;;;;;7.68;6.45;;;19.90;99.90;;;;;;4991361;28;20685;-76
2021/08/17 12:41:50;;;;;;;9.45;7.55;;;19.90;99.90;;;;;;4984646;28;20224;-76
2021/08/17 12:44:19;;;;;;;8.43;7.22;;;19.90;99.90;;;;;;4991482;28;20209;-76
2021/08/17 12:47:04;;;;;;;8.65;7.38;;;20.00;99.90;;;;;;4991822;28;20205;-76
2021/08/17 12:49:43;;;;;;;8.63;7.38;;;20.00;99.90;;;;;;4993316;28;20633;-77